Time;durP1;ratioP1;P1;durP2;ratioP2;P2;SDS_P1;SDS_P2;PMS_P1;PMS_P2;Temp;Humidity;BMP_temperature;BMP_pressure;BME280_temperature;BME280_humidity;BME280_pressure;Samples;Min_cycle;Max_cycle;Signal;HPM_P1;HPM_P2
2023/10/12 00:01:24;;;;;;;14.73;5.63;;;;;;;19.88;62.38;100800.09;4879413;29;20200;-68
2023/10/12 00:03:58;;;;;;;6.77;5.30;;;;;;;19.80;62.78;100794.88;4879326;29;20249;-67
2023/10/12 00:06:30;;;;;;;8.97;5.97;;;;;;;19.83;62.95;100788.19;4879426;29;20277;-68
2023/10/12 00:08:57;;;;;;;12.27;7.20;;;;;;;19.83;62.30;100777.34;4879969;29;20540;-67
2023/10/12 00:11:36;;;;;;;15.00;5.63;;;;;;;19.85;61.88;100770.66;4880052;29;20342;-67
2023/10/12 00:14:04;;;;;;;17.57;5.90;;;;;;;19.81;62.36;100765.88;4883431;29;20188;-67
2023/10/12 00:16:31;;;;;;;14.20;6.37;;;;;;;19.84;61.92;100760.84;4883029;29;20225;-67
2023/10/12 00:18:57;;;;;;;5.87;5.37;;;;;;;19.75;62.62;100753.13;4883281;29;20193;-67
2023/10/12 00:21:25;;;;;;;18.23;6.57;;;;;;;19.82;62.68;100762.94;4883510;29;20196;-67
2023/10/12 00:23:53;;;;;;;23.03;6.07;;;;;;;19.79;62.42;100779.63;4883111;29;20728;-67
2023/10/12 00:26:19;;;;;;;19.03;7.07;;;;;;;19.77;62.62;100784.47;4883613;29;20212;-68
2023/10/12 00:28:51;;;;;;;17.97;7.20;;;;;;;19.78;62.85;100785.25;4881962;29;20288;-68
2023/10/12 00:31:19;;;;;;;10.17;5.83;;;;;;;19.70;62.91;100794.47;4881549;29;20238;-68
2023/10/12 00:33:49;;;;;;;13.80;6.33;;;;;;;19.72;63.02;100791.53;4883035;29;20190;-68
2023/10/12 00:36:21;;;;;;;7.23;6.63;;;;;;;19.71;62.99;100785.28;4881687;29;20772;-68
2023/10/12 00:38:49;;;;;;;12.70;5.60;;;;;;;19.74;63.39;100787.56;4881515;29;20276;-68
2023/10/12 00:41:17;;;;;;;10.60;6.70;;;;;;;19.67;64.00;100781.31;4882686;29;20254;-68
2023/10/12 00:44:07;;;;;;;12.13;6.00;;;;;;;19.50;64.28;100794.47;4882832;29;20220;-68
2023/10/12 00:46:40;;;;;;;12.40;6.53;;;;;;;19.46;65.54;100803.22;4882789;29;20740;-68
2023/10/12 00:49:18;;;;;;;10.50;6.20;;;;;;;19.43;65.07;100812.63;4882851;29;20204;-68
2023/10/12 00:51:52;;;;;;;11.93;5.77;;;;;;;19.35;65.20;100823.59;4882604;29;20268;-68
2023/10/12 00:54:25;;;;;;;11.50;6.60;;;;;;;19.29;65.38;100819.03;4882776;29;20697;-68
2023/10/12 00:57:05;;;;;;;28.40;7.10;;;;;;;19.22;65.72;100811.94;4881348;29;20225;-68
2023/10/12 00:59:33;;;;;;;15.23;6.37;;;;;;;19.21;65.11;100823.81;4882319;29;20193;-68
2023/10/12 01:02:02;;;;;;;20.03;6.13;;;;;;;19.17;66.22;100815.25;4881213;29;20234;-68
2023/10/12 01:04:31;;;;;;;13.00;6.33;;;;;;;19.20;65.63;100814.00;4882250;29;20217;-68
2023/10/12 01:06:59;;;;;;;7.87;6.73;;;;;;;19.17;65.90;100810.66;4882365;29;20340;-68
2023/10/12 01:09:38;;;;;;;7.83;6.43;;;;;;;19.15;65.96;100818.16;4882105;29;20201;-68
2023/10/12 01:12:14;;;;;;;8.13;5.87;;;;;;;19.07;65.88;100817.50;4882423;29;20194;-68
2023/10/12 01:14:43;;;;;;;16.43;7.50;;;;;;;19.09;65.69;100824.41;4882311;29;20177;-68
2023/10/12 01:17:16;;;;;;;14.83;6.40;;;;;;;19.10;65.05;100823.34;4880883;29;20197;-68
2023/10/12 01:19:46;;;;;;;7.80;7.10;;;;;;;19.04;64.99;100820.63;4881999;29;20233;-69
2023/10/12 01:22:14;;;;;;;7.93;7.13;;;;;;;18.98;65.42;100816.03;4882197;29;20250;-68
2023/10/12 01:27:20;;;;;;;10.43;8.83;;;;;;;18.89;65.54;100825.38;4882149;29;20277;-69
2023/10/12 01:29:50;;;;;;;12.87;8.40;;;;;;;18.79;66.33;100830.34;4881402;29;20617;-68
2023/10/12 01:34:51;;;;;;;9.57;8.63;;;;;;;18.54;67.32;100840.88;4881694;29;20249;-68
2023/10/12 01:37:27;;;;;;;11.37;8.27;;;;;;;18.44;68.25;100846.59;4880471;29;20189;-68
2023/10/12 01:47:56;;;;;;;9.87;9.03;;;;;;;17.90;71.58;100875.38;4880285;29;20212;-68
2023/10/12 01:50:27;;;;;;;19.20;10.67;;;;;;;17.82;71.12;100879.06;4881704;29;20702;-68
2023/10/12 01:52:58;;;;;;;18.07;11.53;;;;;;;17.74;72.51;100896.25;4882005;29;20174;-68
2023/10/12 01:55:32;;;;;;;18.07;10.30;;;;;;;17.65;73.42;100896.59;4881299;29;20221;-68
2023/10/12 01:57:59;;;;;;;11.77;10.73;;;;;;;17.66;72.99;100896.38;4880094;29;20210;-68
2023/10/12 02:00:39;;;;;;;23.90;11.53;;;;;;;17.54;73.65;100897.06;4880002;29;20229;-69
2023/10/12 02:03:18;;;;;;;21.53;10.67;;;;;;;17.47;74.31;100902.41;4881386;29;20265;-68
2023/10/12 02:05:51;;;;;;;17.60;10.77;;;;;;;17.45;75.15;100904.44;4881618;29;20224;-68
2023/10/12 02:08:20;;;;;;;11.20;10.17;;;;;;;17.36;76.14;100908.28;4879916;29;20201;-68
2023/10/12 02:10:58;;;;;;;12.70;11.33;;;;;;;17.30;76.70;100912.63;4880136;29;20197;-68
2023/10/12 02:13:24;;;;;;;12.60;11.30;;;;;;;17.27;78.17;100923.78;4881086;29;20173;-68
2023/10/12 02:15:51;;;;;;;33.57;12.17;;;;;;;17.21;78.68;100926.41;4881399;29;20757;-68
2023/10/12 02:18:19;;;;;;;25.30;13.07;;;;;;;17.14;78.83;100925.50;4879668;29;20232;-68
2023/10/12 02:21:06;;;;;;;21.10;13.07;;;;;;;17.04;79.48;100935.78;4881165;29;20270;-68
2023/10/12 02:23:38;;;;;;;17.53;14.03;;;;;;;16.95;80.47;100934.19;4866976;29;20217;-68
2023/10/12 02:26:29;;;;;;;28.60;14.10;;;;;;;16.94;81.34;100944.16;4881139;29;20208;-68
2023/10/12 02:29:35;;;;;;;19.40;13.77;;;;;;;16.95;81.83;100939.59;4880790;29;20177;-68
2023/10/12 02:34:19;;;;;;;29.63;15.30;;;;;;;16.74;83.01;100938.50;4880205;29;20185;-68
2023/10/12 02:39:40;;;;;;;27.20;16.77;;;;;;;16.72;83.41;100945.94;4879367;29;20194;-68
2023/10/12 02:42:17;;;;;;;28.20;16.20;;;;;;;16.62;84.19;100949.94;4880817;29;20268;-68
2023/10/12 02:47:22;;;;;;;30.53;17.77;;;;;;;16.59;85.12;100953.81;4880507;29;20181;-68
2023/10/12 02:49:50;;;;;;;32.33;17.07;;;;;;;16.53;84.99;100935.66;4880905;29;20204;-68
2023/10/12 02:52:20;;;;;;;35.27;17.73;;;;;;;16.45;85.65;100931.19;4880359;29;20193;-68
2023/10/12 02:54:50;;;;;;;32.07;18.40;;;;;;;16.49;85.97;100928.13;4880204;29;20198;-69
2023/10/12 02:57:25;;;;;;;32.87;18.73;;;;;;;16.49;85.68;100918.16;4880441;29;20196;-69
2023/10/12 02:59:57;;;;;;;42.53;19.70;;;;;;;16.45;86.43;100919.56;4879044;29;20298;-68
2023/10/12 03:02:32;;;;;;;28.83;19.53;;;;;;;16.51;86.10;100913.41;4880385;29;20634;-68
2023/10/12 03:05:02;;;;;;;37.00;19.10;;;;;;;16.59;85.88;100921.44;4879130;29;20231;-69
2023/10/12 03:07:29;;;;;;;29.57;18.87;;;;;;;16.58;85.80;100917.09;4880122;29;20262;-68
2023/10/12 03:09:59;;;;;;;30.83;18.67;;;;;;;16.57;85.84;100915.41;4880006;29;20681;-68
2023/10/12 03:12:26;;;;;;;25.43;17.37;;;;;;;16.52;85.97;100927.75;4880289;29;20181;-68
2023/10/12 03:14:52;;;;;;;31.57;18.50;;;;;;;16.55;86.06;100919.28;4880133;29;20197;-69
2023/10/12 03:17:19;;;;;;;27.20;18.17;;;;;;;16.48;86.46;100916.47;4878565;29;20197;-68
2023/10/12 03:19:57;;;;;;;37.27;19.23;;;;;;;16.41;86.53;100921.78;4878637;29;20257;-68
2023/10/12 03:22:31;;;;;;;23.00;17.20;;;;;;;16.40;86.75;100906.63;4880097;29;20173;-68
2023/10/12 03:25:19;;;;;;;28.73;17.40;;;;;;;16.40;86.47;100919.25;4880034;29;20213;-68
2023/10/12 03:27:52;;;;;;;38.57;17.13;;;;;;;16.39;86.25;100921.13;4880322;29;20713;-68
2023/10/12 03:30:34;;;;;;;20.80;15.33;;;;;;;16.33;86.68;100908.38;4880246;29;20182;-68
2023/10/12 03:33:09;;;;;;;32.77;17.10;;;;;;;16.28;86.85;100905.41;4879705;29;20174;-68
2023/10/12 03:35:44;;;;;;;25.07;16.03;;;;;;;16.28;86.98;100905.41;4879634;29;20205;-69
2023/10/12 03:38:18;;;;;;;18.70;14.90;;;;;;;16.31;86.96;100905.03;4880209;29;20192;-69
2023/10/12 03:40:50;;;;;;;22.10;14.37;;;;;;;16.29;86.66;100901.69;4880209;29;20236;-69
2023/10/12 03:43:26;;;;;;;22.50;14.93;;;;;;;16.30;86.46;100897.94;4879790;29;20566;-69
2023/10/12 03:46:17;;;;;;;13.43;12.10;;;;;;;16.24;86.46;100892.47;4879226;29;20283;-69
2023/10/12 03:53:57;;;;;;;33.67;15.33;;;;;;;16.25;86.15;100903.03;4879735;29;20249;-68
2023/10/12 03:56:28;;;;;;;19.13;14.17;;;;;;;16.22;86.42;100899.88;4879625;29;20212;-69
2023/10/12 03:59:06;;;;;;;22.33;15.80;;;;;;;16.17;86.54;100919.31;4879549;29;20637;-68
2023/10/12 04:01:35;;;;;;;28.63;15.10;;;;;;;16.12;87.17;100923.59;4879890;29;20185;-68
2023/10/12 04:04:34;;;;;;;21.93;15.07;;;;;;;16.15;86.98;100918.69;4879226;29;20224;-68
2023/10/12 04:09:31;;;;;;;22.37;15.67;;;;;;;16.06;87.73;100924.31;4879580;29;20268;-68
2023/10/12 04:12:15;;;;;;;32.07;15.10;;;;;;;16.00;88.01;100928.56;4879636;29;20198;-68
2023/10/12 04:14:50;;;;;;;22.53;16.20;;;;;;;16.00;87.75;100915.94;4879362;29;20177;-69
2023/10/12 04:17:41;;;;;;;22.07;15.03;;;;;;;15.97;87.81;100921.69;4879812;29;20209;-68
2023/10/12 04:20:17;;;;;;;25.40;14.80;;;;;;;15.94;88.12;100913.13;4879184;29;20202;-68
2023/10/12 04:27:58;;;;;;;25.20;15.07;;;;;;;16.02;87.40;100934.63;4879213;29;20250;-69
2023/10/12 04:31:20;;;;;;;26.87;14.37;;;;;;;15.98;87.78;100944.13;4879960;29;20189;-69
2023/10/12 04:33:24;;;;;;;16.40;13.60;;;;;;;15.84;88.15;100940.34;4879100;29;20197;-69
2023/10/12 04:38:29;;;;;;;18.20;12.97;;;;;;;15.76;88.67;100918.00;4879105;29;20201;-69
2023/10/12 04:43:51;;;;;;;16.47;12.97;;;;;;;15.72;89.12;100911.28;4879261;29;20193;-69
2023/10/12 04:49:39;;;;;;;18.17;12.97;;;;;;;15.76;89.22;100918.84;4879306;29;20245;-69
2023/10/12 04:52:05;;;;;;;14.30;12.93;;;;;;;15.73;89.18;100921.91;4878975;29;20208;-69
2023/10/12 04:54:36;;;;;;;25.53;13.07;;;;;;;15.74;89.63;100920.06;4879750;29;20209;-69
2023/10/12 05:02:30;;;;;;;20.00;12.20;;;;;;;15.70;89.26;100949.19;4860963;29;20229;-69
2023/10/12 05:07:57;;;;;;;19.40;13.27;;;;;;;15.67;89.14;100954.97;4831955;29;20750;-69
2023/10/12 05:10:31;;;;;;;17.13;12.03;;;;;;;15.69;89.06;100942.16;4882499;29;20174;-69
2023/10/12 05:13:05;;;;;;;25.00;13.57;;;;;;;15.57;89.40;100962.47;4882174;29;20185;-69
2023/10/12 05:15:42;;;;;;;18.90;13.80;;;;;;;15.56;89.66;100960.78;4882058;29;20697;-70
2023/10/12 05:18:10;;;;;;;20.13;12.97;;;;;;;15.54;89.87;100970.88;4882317;29;20598;-70
2023/10/12 05:20:43;;;;;;;20.10;13.87;;;;;;;15.50;89.88;100966.84;4882020;29;20669;-70
2023/10/12 05:23:11;;;;;;;24.60;13.27;;;;;;;15.60;89.36;100966.63;4882461;29;20204;-70
2023/10/12 05:25:48;;;;;;;18.07;12.13;;;;;;;15.51;89.58;100969.38;4881837;29;20209;-70
2023/10/12 05:28:17;;;;;;;22.77;13.77;;;;;;;15.46;89.93;100968.19;4882434;29;20652;-70
2023/10/12 05:30:55;;;;;;;22.63;13.53;;;;;;;15.47;89.91;100981.50;4882043;29;20190;-70
2023/10/12 05:36:08;;;;;;;25.20;13.07;;;;;;;15.44;90.52;100970.25;4881929;29;20224;-70
2023/10/12 05:38:35;;;;;;;23.37;13.73;;;;;;;15.50;90.16;100978.47;4882270;29;20188;-70
2023/10/12 05:41:04;;;;;;;22.40;15.13;;;;;;;15.42;90.45;100977.66;4882110;29;20193;-70
2023/10/12 05:43:33;;;;;;;21.43;12.57;;;;;;;15.41;90.66;100978.66;4881750;29;20240;-70
2023/10/12 05:46:04;;;;;;;16.27;13.70;;;;;;;15.49;90.45;100975.91;4881428;29;20273;-71
2023/10/12 05:48:33;;;;;;;34.27;13.47;;;;;;;15.44;90.43;100976.47;4881477;29;20185;-70
2023/10/12 05:51:00;;;;;;;24.00;14.20;;;;;;;15.34;90.55;100981.22;4881766;29;20215;-70
2023/10/12 05:53:26;;;;;;;24.90;14.43;;;;;;;15.38;91.12;100981.72;4881359;29;20185;-72
2023/10/12 05:55:53;;;;;;;24.73;13.70;;;;;;;15.32;91.13;100975.16;4881567;29;20223;-70
2023/10/12 05:58:19;;;;;;;21.37;12.10;;;;;;;15.36;91.22;100971.09;4880183;29;20209;-70
2023/10/12 06:00:46;;;;;;;21.70;11.27;;;;;;;15.34;90.56;100975.00;4881852;29;20205;-70
2023/10/12 06:03:16;;;;;;;14.60;12.70;;;;;;;15.35;90.92;100974.00;4881163;29;20193;-70
2023/10/12 06:05:43;;;;;;;14.60;11.90;;;;;;;15.30;90.98;100965.59;4881664;29;20213;-71
2023/10/12 06:08:12;;;;;;;13.07;11.73;;;;;;;15.26;91.03;100966.97;4881182;29;20200;-70
2023/10/12 06:10:42;;;;;;;17.07;11.67;;;;;;;15.28;90.91;100965.75;4881038;29;20201;-70
2023/10/12 06:13:09;;;;;;;14.07;11.90;;;;;;;15.23;91.26;100968.16;4881902;29;20262;-70
2023/10/12 06:15:53;;;;;;;14.43;11.20;;;;;;;15.22;91.25;100969.19;4881047;29;20353;-70
2023/10/12 06:18:25;;;;;;;18.80;11.70;;;;;;;15.24;91.25;100975.22;4880998;29;20185;-70
2023/10/12 06:21:07;;;;;;;13.83;11.43;;;;;;;15.28;91.34;100975.69;4881283;29;20181;-70
2023/10/12 06:23:39;;;;;;;14.17;11.20;;;;;;;15.37;90.82;100986.25;4880869;29;20578;-70
2023/10/12 06:26:14;;;;;;;17.00;11.97;;;;;;;15.33;90.84;100993.03;4881557;29;20217;-71
2023/10/12 06:28:42;;;;;;;24.77;11.80;;;;;;;15.33;90.81;100994.88;4881125;29;20176;-71
2023/10/12 06:31:09;;;;;;;20.50;11.87;;;;;;;15.30;91.16;100992.53;4881119;29;20189;-71
2023/10/12 06:33:40;;;;;;;24.90;12.23;;;;;;;15.35;91.10;101003.63;4880927;29;20221;-71
2023/10/12 06:36:16;;;;;;;25.67;11.53;;;;;;;15.30;91.46;101012.25;4880606;29;20282;-71
2023/10/12 06:41:58;;;;;;;18.57;11.30;;;;;;;15.31;91.37;101002.31;4881066;29;20711;-70
2023/10/12 06:46:54;;;;;;;23.00;11.37;;;;;;;15.37;91.22;101009.66;4880727;29;20308;-70
2023/10/12 06:49:22;;;;;;;15.23;11.40;;;;;;;15.36;91.48;101019.59;4880470;29;20184;-70
2023/10/12 06:52:00;;;;;;;13.93;11.10;;;;;;;15.39;90.96;101010.34;4880368;29;20197;-70
2023/10/12 07:02:27;;;;;;;18.40;10.67;;;;;;;15.34;91.50;101034.28;4880231;29;20181;-69
2023/10/12 07:04:55;;;;;;;16.43;11.33;;;;;;;15.36;91.63;101038.47;4880264;29;20232;-70
2023/10/12 07:07:58;;;;;;;12.30;9.90;;;;;;;15.45;91.33;101040.09;4880139;29;20185;-70
2023/10/12 07:10:27;;;;;;;12.03;10.57;;;;;;;15.45;91.15;101041.97;4877442;29;20269;-69
2023/10/12 07:12:59;;;;;;;18.23;11.20;;;;;;;15.48;91.23;101047.84;4880084;29;20170;-69
2023/10/12 07:15:32;;;;;;;19.83;11.40;;;;;;;15.43;91.38;101049.38;4879947;29;20217;-70
2023/10/12 07:18:06;;;;;;;14.43;9.47;;;;;;;15.48;91.24;101053.25;4880286;29;20177;-70
2023/10/12 07:23:15;;;;;;;17.70;10.43;;;;;;;15.49;91.37;101051.38;4879900;29;20193;-70
2023/10/12 07:25:51;;;;;;;22.93;10.87;;;;;;;15.49;91.41;101059.44;4879851;29;20252;-70
2023/10/12 07:28:25;;;;;;;11.10;9.97;;;;;;;15.53;91.28;101056.25;4880100;29;20181;-70
2023/10/12 07:36:45;;;;;;;16.87;11.53;;;;;;;15.54;91.37;101068.72;4869500;29;20655;-70
2023/10/12 07:41:53;;;;;;;30.03;10.20;;;;;;;15.62;90.67;101064.31;4879913;29;20181;-70
2023/10/12 07:44:22;;;;;;;12.03;10.47;;;;;;;15.62;90.77;101081.31;4880054;29;20212;-70
2023/10/12 07:46:48;;;;;;;10.80;9.70;;;;;;;15.62;90.99;101080.47;4879491;29;20220;-70
2023/10/12 07:49:37;;;;;;;16.70;10.07;;;;;;;15.65;90.61;101085.53;4879556;29;20185;-70
2023/10/12 07:52:21;;;;;;;15.83;10.40;;;;;;;15.60;90.78;101082.53;4879849;29;20551;-70
2023/10/12 07:57:20;;;;;;;19.13;10.20;;;;;;;15.62;90.65;101078.63;4879310;29;20185;-70
2023/10/12 08:02:59;;;;;;;19.83;10.10;;;;;;;15.67;90.65;101080.78;4878237;29;20664;-70
2023/10/12 08:10:56;;;;;;;16.83;10.80;;;;;;;15.69;90.70;101086.88;4879693;29;20189;-70
2023/10/12 08:15:55;;;;;;;15.27;9.40;;;;;;;15.70;91.02;101089.38;4879777;29;20216;-71
2023/10/12 08:19:22;;;;;;;12.17;9.87;;;;;;;15.74;90.67;101090.69;4879893;29;20177;-70
2023/10/12 08:21:43;;;;;;;26.67;11.20;;;;;;;15.82;90.02;101087.13;4879214;29;20196;-70
2023/10/12 08:24:09;;;;;;;20.43;11.27;;;;;;;15.73;90.50;101091.72;4879228;29;20261;-70
2023/10/12 08:32:10;;;;;;;21.17;12.20;;;;;;;15.74;90.67;101090.69;4879211;29;20189;-70
2023/10/12 08:37:18;;;;;;;17.60;10.73;;;;;;;15.83;90.45;101092.34;4882768;29;20253;-70
2023/10/12 08:42:36;;;;;;;19.70;11.70;;;;;;;15.80;90.56;101094.56;4882996;29;20581;-70
2023/10/12 08:45:17;;;;;;;32.10;11.07;;;;;;;15.85;90.78;101100.25;4882766;29;20225;-70
2023/10/12 08:47:49;;;;;;;17.20;10.73;;;;;;;15.88;90.52;101097.19;4882801;29;20192;-70
2023/10/12 08:52:50;;;;;;;23.97;13.27;;;;;;;15.84;91.02;101106.66;4882763;29;20286;-69
2023/10/12 08:55:19;;;;;;;23.40;10.63;;;;;;;15.90;90.49;101108.66;4882774;29;20215;-70
2023/10/12 08:58:20;;;;;;;15.93;10.77;;;;;;;15.87;90.17;101111.72;4882373;29;20201;-69
2023/10/12 09:03:29;;;;;;;19.97;11.37;;;;;;;15.89;90.83;101101.59;4882623;29;20200;-69
2023/10/12 09:05:58;;;;;;;13.30;11.23;;;;;;;15.85;90.65;101111.03;4882117;29;20217;-69
2023/10/12 09:11:03;;;;;;;22.53;11.60;;;;;;;15.82;90.88;101122.19;4882759;29;20173;-69
2023/10/12 09:13:34;;;;;;;22.17;11.47;;;;;;;15.87;90.78;101111.72;4882633;29;20199;-69
2023/10/12 09:16:03;;;;;;;19.03;11.23;;;;;;;15.86;90.82;101107.34;4882211;29;20589;-70
2023/10/12 09:18:34;;;;;;;21.23;12.13;;;;;;;15.75;91.58;101115.81;4882369;29;20224;-69
2023/10/12 09:23:38;;;;;;;20.53;10.40;;;;;;;15.75;91.90;101118.50;4882186;29;20193;-69
2023/10/12 09:29:07;;;;;;;17.23;11.43;;;;;;;15.85;91.94;101119.97;4882459;29;20181;-70
2023/10/12 09:36:43;;;;;;;23.67;11.50;;;;;;;15.88;92.06;101116.91;4881989;29;20220;-70
2023/10/12 09:39:13;;;;;;;14.90;11.17;;;;;;;15.97;91.84;101115.03;4882021;29;20205;-70
2023/10/12 09:41:54;;;;;;;20.50;11.27;;;;;;;15.94;91.85;101118.06;4881648;29;20212;-70
2023/10/12 09:44:26;;;;;;;18.13;11.43;;;;;;;15.94;92.20;101110.84;4880792;29;20214;-70
2023/10/12 09:46:55;;;;;;;30.13;11.33;;;;;;;16.06;92.07;101118.50;4882053;29;20693;-70
2023/10/12 09:49:30;;;;;;;14.10;11.13;;;;;;;16.11;91.72;101116.13;4881796;29;20280;-70
2023/10/12 09:52:13;;;;;;;21.47;11.53;;;;;;;16.18;91.36;101123.31;4881780;29;20188;-70
2023/10/12 09:54:46;;;;;;;14.73;10.90;;;;;;;16.13;91.96;101119.47;4881382;29;20726;-70
2023/10/12 09:57:23;;;;;;;19.63;10.93;;;;;;;16.21;91.81;101116.75;4881550;29;20202;-69
2023/10/12 09:59:52;;;;;;;23.07;11.43;;;;;;;16.33;90.56;101124.25;4881698;29;20185;-69
2023/10/12 10:02:29;;;;;;;29.87;12.03;;;;;;;16.27;91.15;101127.66;4880102;29;20609;-69
2023/10/12 10:05:27;;;;;;;21.83;11.53;;;;;;;16.30;90.92;101129.13;4881152;29;20278;-69
2023/10/12 10:08:02;;;;;;;14.80;11.80;;;;;;;16.31;91.11;101134.38;4881203;29;20661;-69
2023/10/12 10:10:33;;;;;;;28.03;11.57;;;;;;;16.31;91.15;101133.53;4881493;29;20185;-69
2023/10/12 10:13:03;;;;;;;25.20;12.90;;;;;;;16.25;91.36;101129.66;4881448;29;20654;-70
2023/10/12 10:15:37;;;;;;;20.53;11.07;;;;;;;16.29;91.72;101122.94;4881146;29;20219;-71
2023/10/12 10:18:04;;;;;;;21.40;12.40;;;;;;;16.29;91.46;101132.88;4881285;29;20186;-71
2023/10/12 10:21:18;;;;;;;21.30;12.37;;;;;;;16.31;91.85;101128.13;4881264;29;20199;-71
2023/10/12 10:23:24;;;;;;;33.57;12.67;;;;;;;16.37;91.83;101125.56;4871327;29;20562;-71
2023/10/12 10:25:56;;;;;;;30.17;13.27;;;;;;;16.36;91.51;101120.34;4880990;29;20228;-72
2023/10/12 10:28:28;;;;;;;18.87;14.80;;;;;;;16.27;92.18;101106.06;4881381;29;20188;-71
2023/10/12 10:31:01;;;;;;;19.97;12.50;;;;;;;16.25;92.79;101100.00;4881102;29;20267;-71
2023/10/12 10:33:29;;;;;;;17.27;10.77;;;;;;;16.27;92.70;101091.72;4881082;29;20217;-71
2023/10/12 10:36:24;;;;;;;25.63;12.83;;;;;;;16.27;93.21;101078.25;4881170;29;20213;-71
2023/10/12 10:41:23;;;;;;;13.10;11.80;;;;;;;16.37;93.26;101077.00;4880585;29;20193;-71
2023/10/12 10:43:59;;;;;;;21.40;12.47;;;;;;;16.41;93.37;101072.91;4880883;29;20184;-71
2023/10/12 10:46:27;;;;;;;19.23;12.07;;;;;;;16.50;93.05;101076.38;4880742;29;20308;-71
2023/10/12 10:48:55;;;;;;;34.63;12.60;;;;;;;16.61;93.13;101083.22;4880511;29;20201;-71
2023/10/12 10:51:27;;;;;;;26.57;11.70;;;;;;;16.70;92.76;101085.69;4880668;29;20185;-71
2023/10/12 10:53:54;;;;;;;14.77;11.07;;;;;;;16.73;92.75;101088.00;4880577;29;20223;-71
2023/10/12 10:56:38;;;;;;;11.67;10.47;;;;;;;16.71;92.81;101078.44;4879857;29;20216;-71
2023/10/12 10:59:06;;;;;;;22.20;12.20;;;;;;;16.72;92.79;101080.91;4880590;29;20278;-71
2023/10/12 11:01:33;;;;;;;24.73;11.80;;;;;;;16.78;92.51;101082.91;4880214;29;20730;-71
2023/10/12 11:04:01;;;;;;;22.07;10.93;;;;;;;16.79;92.42;101081.03;4880177;29;20201;-71
2023/10/12 11:06:28;;;;;;;15.67;11.07;;;;;;;16.82;91.95;101088.78;4880563;29;20292;-71
2023/10/12 11:11:58;;;;;;;14.57;11.57;;;;;;;16.90;90.71;101094.09;4868468;29;20685;-71
2023/10/12 11:14:26;;;;;;;25.20;11.03;;;;;;;16.86;91.08;101088.22;4880279;29;20185;-71
2023/10/12 11:16:54;;;;;;;16.53;11.17;;;;;;;16.81;91.49;101093.34;4879917;29;20705;-71
2023/10/12 11:19:23;;;;;;;15.43;9.83;;;;;;;16.85;91.72;101096.50;4880203;29;20204;-72
2023/10/12 11:21:53;;;;;;;17.30;10.63;;;;;;;16.85;91.46;101089.25;4879925;29;20220;-72
2023/10/12 11:24:23;;;;;;;33.67;11.27;;;;;;;16.84;91.44;101087.59;4879896;29;20197;-72
2023/10/12 11:26:54;;;;;;;9.57;8.27;;;;;;;16.81;91.52;101090.63;4879740;29;20225;-71
2023/10/12 11:29:24;;;;;;;17.40;10.63;;;;;;;16.77;91.61;101069.56;4879859;29;20177;-71
2023/10/12 11:32:24;;;;;;;11.20;10.10;;;;;;;16.75;92.20;101072.47;4879754;29;20205;-71
2023/10/12 11:34:53;;;;;;;17.30;9.13;;;;;;;16.75;92.28;101066.22;4849416;29;20216;-72
2023/10/12 11:37:20;;;;;;;11.40;8.30;;;;;;;16.73;92.00;101065.56;4879880;29;20197;-71
2023/10/12 11:39:49;;;;;;;11.80;8.50;;;;;;;16.76;92.47;101066.03;4879636;29;20196;-71
2023/10/12 11:42:17;;;;;;;9.27;8.20;;;;;;;16.76;92.29;101060.63;4879537;29;20669;-71
2023/10/12 11:44:46;;;;;;;16.47;8.93;;;;;;;16.78;92.07;101064.00;4880229;29;20609;-72
2023/10/12 11:47:37;;;;;;;12.83;9.33;;;;;;;16.82;92.12;101069.88;4879612;29;20196;-72
2023/10/12 11:50:09;;;;;;;13.33;9.80;;;;;;;16.84;91.94;101070.53;4879904;29;20230;-72
2023/10/12 11:52:39;;;;;;;13.60;9.03;;;;;;;16.85;91.94;101064.09;4879851;29;20629;-71
2023/10/12 11:55:20;;;;;;;16.30;9.40;;;;;;;16.86;92.03;101060.38;4879665;29;20572;-71
2023/10/12 11:57:48;;;;;;;9.93;9.03;;;;;;;16.88;92.06;101052.94;4879399;29;20257;-71
2023/10/12 12:00:21;;;;;;;14.37;8.83;;;;;;;16.88;91.89;101047.53;4880024;29;20189;-71
2023/10/12 12:02:57;;;;;;;11.57;9.00;;;;;;;16.89;92.15;101051.91;4880010;29;20241;-71
2023/10/12 12:05:25;;;;;;;9.57;8.67;;;;;;;16.90;92.05;101045.47;4879572;29;20220;-71
2023/10/12 12:07:53;;;;;;;9.13;8.40;;;;;;;16.91;92.18;101036.38;4880362;29;20189;-71
2023/10/12 12:10:37;;;;;;;18.93;8.27;;;;;;;16.94;91.81;101040.53;4883240;29;20661;-71
2023/10/12 12:13:08;;;;;;;12.63;10.03;;;;;;;16.96;92.15;101033.94;4883287;29;20191;-71
2023/10/12 12:15:36;;;;;;;9.97;8.77;;;;;;;16.95;92.35;101034.97;4883474;29;20586;-71
2023/10/12 12:18:05;;;;;;;12.70;7.70;;;;;;;16.99;92.30;101038.13;4883150;29;20201;-71
2023/10/12 12:20:39;;;;;;;13.63;8.63;;;;;;;17.01;92.33;101039.63;4883630;29;20197;-71
2023/10/12 12:23:06;;;;;;;15.57;8.57;;;;;;;17.02;92.76;101035.03;4883625;29;20185;-71
2023/10/12 12:25:33;;;;;;;13.37;8.87;;;;;;;17.02;92.65;101027.78;4883407;29;20669;-71
2023/10/12 12:28:02;;;;;;;14.70;10.00;;;;;;;17.05;92.40;101019.34;4882943;29;20193;-71
2023/10/12 12:30:32;;;;;;;17.77;9.13;;;;;;;17.05;92.36;101022.03;4882972;29;20622;-71
2023/10/12 12:33:08;;;;;;;12.97;8.87;;;;;;;17.08;92.55;101012.72;4882913;29;20181;-71
2023/10/12 12:35:36;;;;;;;11.20;9.67;;;;;;;17.08;92.30;101021.66;4882786;29;20213;-71
2023/10/12 12:38:07;;;;;;;17.97;10.17;;;;;;;17.10;92.69;101024.19;4883060;29;20279;-71
2023/10/12 12:40:39;;;;;;;8.97;8.03;;;;;;;17.11;92.50;101031.22;4882150;29;20532;-71
2023/10/12 12:43:09;;;;;;;11.33;8.93;;;;;;;17.09;92.72;101031.44;4883260;29;20196;-71
2023/10/12 12:45:36;;;;;;;11.10;7.93;;;;;;;17.11;92.79;101026.66;4883270;29;20228;-71
2023/10/12 12:48:04;;;;;;;9.20;7.97;;;;;;;17.11;92.44;101021.28;4882517;29;20197;-71
2023/10/12 12:50:31;;;;;;;9.83;8.97;;;;;;;17.12;92.32;101014.84;4883360;29;20646;-71
2023/10/12 12:52:58;;;;;;;8.43;7.87;;;;;;;17.13;92.59;101008.44;4881426;29;20216;-71
2023/10/12 12:55:30;;;;;;;9.93;9.03;;;;;;;17.15;93.41;101011.75;4882430;29;20205;-71
2023/10/12 12:57:56;;;;;;;14.03;8.70;;;;;;;17.18;92.72;101024.06;4882933;29;20671;-71
2023/10/12 13:00:23;;;;;;;9.93;8.60;;;;;;;17.18;92.92;101006.00;4882721;29;20177;-71
2023/10/12 13:02:49;;;;;;;18.80;10.40;;;;;;;17.22;93.05;101003.75;4882616;29;20194;-71
2023/10/12 13:05:16;;;;;;;21.70;11.80;;;;;;;17.21;93.06;101008.31;4882579;29;20634;-71
2023/10/12 13:07:46;;;;;;;14.40;10.07;;;;;;;17.22;92.90;101014.56;4882250;29;20189;-71
2023/10/12 13:10:13;;;;;;;16.10;10.50;;;;;;;17.26;92.82;101014.00;4882786;29;20649;-71
2023/10/12 13:12:42;;;;;;;20.53;13.70;;;;;;;17.29;92.73;101007.38;4882689;29;20204;-71
2023/10/12 13:15:14;;;;;;;17.17;10.80;;;;;;;17.29;92.94;101010.91;4882097;29;20721;-71
2023/10/12 13:17:41;;;;;;;19.93;12.93;;;;;;;17.30;93.22;101023.41;4882103;29;20197;-71
2023/10/12 13:20:21;;;;;;;22.57;12.70;;;;;;;17.31;92.33;101026.97;4881742;29;20246;-71
2023/10/12 13:22:49;;;;;;;21.20;12.90;;;;;;;17.28;92.71;101032.72;4881031;29;20241;-71
2023/10/12 13:25:19;;;;;;;14.93;12.00;;;;;;;17.23;92.71;101038.69;4881823;29;20220;-71
2023/10/12 13:27:51;;;;;;;24.77;12.43;;;;;;;17.19;92.46;101028.44;4882267;29;20200;-70
2023/10/12 13:30:18;;;;;;;16.90;13.53;;;;;;;17.14;92.49;101030.88;4882472;29;20549;-70
2023/10/12 13:32:50;;;;;;;18.57;12.93;;;;;;;17.16;92.49;101028.81;4881767;29;20200;-70
2023/10/12 13:36:01;;;;;;;11.57;10.40;;;;;;;17.16;92.40;101034.22;4882316;29;20273;-71
2023/10/12 13:38:09;;;;;;;13.83;11.73;;;;;;;17.16;92.38;101037.75;4874372;29;20220;-71
2023/10/12 13:40:40;;;;;;;12.77;11.50;;;;;;;17.16;92.55;101032.34;4881954;29;20197;-71
2023/10/12 13:43:14;;;;;;;20.80;13.20;;;;;;;17.15;92.62;101027.13;4881702;29;20605;-70